createdAt,value
2017-12-31T00:01:32.100Z,3.38
2017-12-31T00:04:02.906Z,3.35
2017-12-31T00:06:33.748Z,3.38
2017-12-31T00:09:04.550Z,3.36
2017-12-31T00:11:35.358Z,3.33
2017-12-31T00:14:06.179Z,3.38
2017-12-31T00:16:36.937Z,3.38
2017-12-31T00:19:07.747Z,3.43
2017-12-31T00:21:38.545Z,3.48
2017-12-31T00:24:09.362Z,3.59
2017-12-31T00:26:40.155Z,3.56
2017-12-31T00:29:10.928Z,3.43
2017-12-31T00:31:41.762Z,3.36
2017-12-31T00:34:12.546Z,3.36
2017-12-31T00:36:43.330Z,3.30
2017-12-31T00:39:14.109Z,3.34
2017-12-31T00:41:44.903Z,3.40
2017-12-31T00:44:15.715Z,3.44
2017-12-31T00:46:46.526Z,3.42
2017-12-31T00:49:17.355Z,3.44
2017-12-31T00:51:48.199Z,3.50
2017-12-31T00:54:19.001Z,3.52
2017-12-31T00:56:49.812Z,3.55
2017-12-31T00:59:20.623Z,3.48
2017-12-31T01:01:51.398Z,3.56
2017-12-31T01:04:22.173Z,3.56
2017-12-31T01:06:52.936Z,3.55
2017-12-31T01:09:23.705Z,3.57
2017-12-31T01:11:54.481Z,3.63
2017-12-31T01:14:32.247Z,3.59
2017-12-31T01:17:02.999Z,3.40
2017-12-31T01:19:33.759Z,3.45
2017-12-31T01:22:04.504Z,3.55
2017-12-31T01:24:35.273Z,3.57
2017-12-31T01:27:06.027Z,3.59
2017-12-31T01:29:36.793Z,3.67
2017-12-31T01:32:07.549Z,3.71
2017-12-31T01:34:45.373Z,3.71
2017-12-31T01:37:16.115Z,3.72
2017-12-31T01:39:53.808Z,3.76
2017-12-31T01:42:24.596Z,3.81
2017-12-31T01:44:55.352Z,3.78
2017-12-31T01:47:26.089Z,3.65
2017-12-31T01:50:03.724Z,3.65
2017-12-31T01:52:34.471Z,3.72
2017-12-31T01:55:05.248Z,3.72
2017-12-31T01:57:35.992Z,3.81
2017-12-31T02:00:06.760Z,3.81
2017-12-31T02:02:37.505Z,3.94
2017-12-31T02:05:08.264Z,3.93
2017-12-31T02:07:38.999Z,4.00
2017-12-31T02:10:09.756Z,4.04
2017-12-31T02:12:40.496Z,4.11
2017-12-31T02:15:11.263Z,4.26
2017-12-31T02:17:42.005Z,4.28
2017-12-31T02:20:12.759Z,4.26
2017-12-31T02:22:43.501Z,4.26
2017-12-31T02:25:14.248Z,4.32
2017-12-31T02:27:44.993Z,4.34
2017-12-31T02:30:15.770Z,4.34
2017-12-31T02:32:46.505Z,4.31
2017-12-31T02:35:17.255Z,4.30
2017-12-31T02:37:47.984Z,4.27
2017-12-31T02:40:18.752Z,4.54
2017-12-31T02:42:49.508Z,5.18
2017-12-31T02:45:20.253Z,6.22
2017-12-31T02:47:50.992Z,7.20
2017-12-31T02:50:21.755Z,7.53
2017-12-31T02:52:52.493Z,7.80
2017-12-31T02:55:23.257Z,8.08
2017-12-31T02:57:53.995Z,8.13
2017-12-31T03:00:24.760Z,8.15
2017-12-31T03:02:55.507Z,8.18
2017-12-31T03:05:26.252Z,8.28
2017-12-31T03:07:57.000Z,8.27
2017-12-31T03:10:27.765Z,8.45
2017-12-31T03:12:58.509Z,8.49
2017-12-31T03:15:29.254Z,8.63
2017-12-31T03:17:59.990Z,8.66
2017-12-31T03:20:30.747Z,8.72
2017-12-31T03:23:01.483Z,8.71
2017-12-31T03:25:32.288Z,8.78
2017-12-31T03:28:03.046Z,8.85
2017-12-31T03:30:33.828Z,8.81
2017-12-31T03:33:04.568Z,8.81
2017-12-31T03:35:35.328Z,8.80
2017-12-31T03:38:06.067Z,8.79
2017-12-31T03:40:36.836Z,8.82
2017-12-31T03:43:07.572Z,8.75
2017-12-31T03:45:38.352Z,8.90
2017-12-31T03:48:09.091Z,8.93
2017-12-31T03:50:39.892Z,8.91
2017-12-31T03:53:10.704Z,8.90
2017-12-31T03:55:41.460Z,8.97
2017-12-31T03:58:12.206Z,9.15
2017-12-31T04:00:42.968Z,8.99
2017-12-31T04:03:13.697Z,9.10
2017-12-31T04:05:44.455Z,9.03
2017-12-31T04:08:15.200Z,9.19
2017-12-31T04:10:45.965Z,9.23
2017-12-31T04:13:16.704Z,9.15
2017-12-31T04:15:47.465Z,9.22
2017-12-31T04:18:18.195Z,9.28
2017-12-31T04:20:48.956Z,9.28
2017-12-31T04:23:19.696Z,9.17
2017-12-31T04:25:50.461Z,9.24
2017-12-31T04:28:21.203Z,9.17
2017-12-31T04:30:51.959Z,9.29
2017-12-31T04:33:22.693Z,9.26
2017-12-31T04:35:53.461Z,9.26
2017-12-31T04:38:24.187Z,9.27
2017-12-31T04:40:54.964Z,9.27
2017-12-31T04:43:25.703Z,9.37
2017-12-31T04:45:56.480Z,9.23
2017-12-31T04:48:27.235Z,9.25
2017-12-31T04:50:57.997Z,9.27
2017-12-31T04:53:28.743Z,9.24
2017-12-31T04:55:59.520Z,9.19
2017-12-31T04:58:30.288Z,9.26
2017-12-31T05:01:01.076Z,9.28
2017-12-31T05:03:31.820Z,9.29
2017-12-31T05:06:02.609Z,9.34
2017-12-31T05:08:33.360Z,9.35
2017-12-31T05:11:04.139Z,9.26
2017-12-31T05:13:34.901Z,9.37
2017-12-31T05:16:05.661Z,9.34
2017-12-31T05:18:36.423Z,9.27
2017-12-31T05:21:07.212Z,9.39
2017-12-31T05:23:38.072Z,9.37
2017-12-31T05:26:08.840Z,9.46
2017-12-31T05:28:39.595Z,9.50
2017-12-31T05:31:10.364Z,9.50
2017-12-31T05:33:41.109Z,9.48
2017-12-31T05:36:11.888Z,9.54
2017-12-31T05:38:42.644Z,9.53
2017-12-31T05:41:13.396Z,9.62
2017-12-31T05:43:44.148Z,9.61
2017-12-31T05:46:14.912Z,9.58
2017-12-31T05:48:45.647Z,9.52
2017-12-31T05:51:16.417Z,9.52
2017-12-31T05:53:47.153Z,9.51
2017-12-31T05:56:17.920Z,9.56
2017-12-31T05:58:48.653Z,9.50
2017-12-31T06:01:19.428Z,9.57
2017-12-31T06:03:50.156Z,9.54
2017-12-31T06:06:20.947Z,9.49
2017-12-31T06:08:51.696Z,9.53
2017-12-31T06:11:22.465Z,9.55
2017-12-31T06:13:53.200Z,9.56
2017-12-31T06:16:23.964Z,9.60
2017-12-31T06:18:54.721Z,9.59
2017-12-31T06:21:25.490Z,9.58
2017-12-31T06:23:56.228Z,9.68
2017-12-31T06:26:26.992Z,9.59
2017-12-31T06:28:57.744Z,9.67
2017-12-31T06:31:28.541Z,9.70
2017-12-31T06:33:59.285Z,9.71
2017-12-31T06:36:30.056Z,9.73
2017-12-31T06:39:00.800Z,9.70
2017-12-31T06:41:31.576Z,9.69
2017-12-31T06:44:02.317Z,9.70
2017-12-31T06:46:33.107Z,9.71
2017-12-31T06:49:03.861Z,9.71
2017-12-31T06:51:34.616Z,9.68
2017-12-31T06:54:05.357Z,9.69
2017-12-31T06:56:36.138Z,9.75
2017-12-31T06:59:06.868Z,9.76
2017-12-31T07:01:37.615Z,9.70
2017-12-31T07:04:08.379Z,9.70
2017-12-31T07:06:39.142Z,9.71
2017-12-31T07:09:09.905Z,9.65
2017-12-31T07:11:40.669Z,9.66
2017-12-31T07:14:11.465Z,9.65
2017-12-31T07:16:42.216Z,9.65
2017-12-31T07:19:13.076Z,9.63
2017-12-31T07:21:43.840Z,9.62
2017-12-31T07:24:14.617Z,9.65
2017-12-31T07:26:45.376Z,9.68
2017-12-31T07:29:16.112Z,9.73
2017-12-31T07:31:46.924Z,9.76
2017-12-31T07:34:17.666Z,9.73
2017-12-31T07:36:48.447Z,9.78
2017-12-31T07:39:19.200Z,9.81
2017-12-31T07:41:49.996Z,9.79
2017-12-31T07:44:20.735Z,9.79
2017-12-31T07:46:51.505Z,9.86
2017-12-31T07:49:22.257Z,9.87
2017-12-31T07:51:53.032Z,9.91
2017-12-31T07:54:23.829Z,9.91
2017-12-31T07:56:54.596Z,9.89
2017-12-31T07:59:25.358Z,9.89
2017-12-31T08:01:56.139Z,9.98
2017-12-31T08:04:26.889Z,9.98
2017-12-31T08:06:57.656Z,10.02
2017-12-31T08:09:28.395Z,10.03
2017-12-31T08:11:59.181Z,10.02
2017-12-31T08:14:29.945Z,10.10
2017-12-31T08:17:00.724Z,10.13
2017-12-31T08:19:31.472Z,10.14
2017-12-31T08:22:02.248Z,10.16
2017-12-31T08:24:32.980Z,10.18
2017-12-31T08:27:03.736Z,10.23
2017-12-31T08:29:34.483Z,10.28
2017-12-31T08:32:07.477Z,10.30
2017-12-31T08:34:38.315Z,10.53
2017-12-31T08:37:09.072Z,10.94
2017-12-31T08:39:39.820Z,11.23
2017-12-31T08:42:10.584Z,11.40
2017-12-31T08:44:41.464Z,11.50
2017-12-31T08:47:12.372Z,11.65
2017-12-31T08:49:43.246Z,11.78
2017-12-31T08:52:17.792Z,11.76
2017-12-31T08:54:48.558Z,11.81
2017-12-31T08:57:19.312Z,11.91
2017-12-31T08:59:50.056Z,12.09
2017-12-31T09:02:20.840Z,12.07
2017-12-31T09:04:51.572Z,12.19
2017-12-31T09:07:22.394Z,12.41
2017-12-31T09:09:53.140Z,12.68
2017-12-31T09:12:23.900Z,12.66
2017-12-31T09:14:54.685Z,12.68
2017-12-31T09:17:25.428Z,12.37
2017-12-31T09:19:56.176Z,12.10
2017-12-31T09:22:26.915Z,12.29
2017-12-31T09:24:57.659Z,12.61
2017-12-31T09:27:28.397Z,12.65
2017-12-31T09:29:59.161Z,12.66
2017-12-31T09:32:29.954Z,12.74
2017-12-31T09:35:00.672Z,12.71
2017-12-31T09:37:31.416Z,12.78
2017-12-31T09:40:02.192Z,13.00
2017-12-31T09:42:32.950Z,13.42
2017-12-31T09:45:03.722Z,13.73
2017-12-31T09:47:34.473Z,13.89
2017-12-31T09:50:05.240Z,14.09
2017-12-31T09:52:35.991Z,13.94
2017-12-31T09:55:06.751Z,13.76
2017-12-31T09:57:37.509Z,13.46
2017-12-31T10:00:08.289Z,13.44
2017-12-31T10:02:39.046Z,13.13
2017-12-31T10:05:09.808Z,13.39
2017-12-31T10:07:40.628Z,13.20
2017-12-31T10:10:11.417Z,13.20
2017-12-31T10:12:42.232Z,13.27
2017-12-31T10:15:12.988Z,13.27
2017-12-31T10:17:43.748Z,13.35
2017-12-31T10:20:14.508Z,13.06
2017-12-31T10:22:45.261Z,12.84
2017-12-31T10:25:16.052Z,12.75
2017-12-31T10:27:46.814Z,12.57
2017-12-31T10:30:17.588Z,12.58
2017-12-31T10:32:48.331Z,12.70
2017-12-31T10:35:19.128Z,12.64
2017-12-31T10:37:56.881Z,12.74
2017-12-31T10:40:27.668Z,12.94
2017-12-31T10:42:58.425Z,13.13
2017-12-31T10:45:29.180Z,13.37
2017-12-31T10:47:59.939Z,13.45
2017-12-31T10:50:30.688Z,13.40
2017-12-31T10:53:01.450Z,13.68
2017-12-31T10:55:32.207Z,13.86
2017-12-31T10:58:02.956Z,13.57
2017-12-31T11:00:35.595Z,13.73
2017-12-31T11:03:06.336Z,13.59
2017-12-31T11:05:37.092Z,13.53
2017-12-31T11:08:07.853Z,13.54
2017-12-31T11:10:38.657Z,13.50
2017-12-31T11:13:09.445Z,13.48
2017-12-31T11:15:40.220Z,13.59
2017-12-31T11:18:10.964Z,13.65
2017-12-31T11:20:41.733Z,13.76
2017-12-31T11:23:12.488Z,13.92
2017-12-31T11:25:43.259Z,13.86
2017-12-31T11:28:14.021Z,13.80
2017-12-31T11:30:44.792Z,13.90
2017-12-31T11:33:15.545Z,14.21
2017-12-31T11:35:46.320Z,14.30
2017-12-31T11:38:17.069Z,14.55
2017-12-31T11:40:47.908Z,14.71
2017-12-31T11:43:18.628Z,14.97
2017-12-31T11:45:49.445Z,15.18
2017-12-31T11:48:20.201Z,14.84
2017-12-31T11:50:50.986Z,14.71
2017-12-31T11:53:21.753Z,14.78
2017-12-31T11:55:52.529Z,14.76
2017-12-31T11:58:23.284Z,14.84
2017-12-31T12:00:54.071Z,14.65
2017-12-31T12:03:24.852Z,14.36
2017-12-31T12:05:55.617Z,14.38
2017-12-31T12:08:26.377Z,14.12
2017-12-31T12:10:57.149Z,14.11
2017-12-31T12:13:27.920Z,14.13
2017-12-31T12:15:58.696Z,14.18
2017-12-31T12:18:29.452Z,14.12
2017-12-31T12:21:00.248Z,14.18
2017-12-31T12:23:31.075Z,14.13
2017-12-31T12:26:01.853Z,14.12
2017-12-31T12:28:32.629Z,14.04
2017-12-31T12:31:03.452Z,14.09
2017-12-31T12:33:34.237Z,14.08
2017-12-31T12:36:05.005Z,14.16
2017-12-31T12:38:35.802Z,14.02
2017-12-31T12:41:06.560Z,13.79
2017-12-31T12:43:37.324Z,13.52
2017-12-31T12:46:08.129Z,13.63
2017-12-31T12:48:38.867Z,13.74
2017-12-31T12:51:09.669Z,13.96
2017-12-31T12:53:40.428Z,14.06
2017-12-31T12:56:11.384Z,14.06
2017-12-31T12:58:42.136Z,13.85
2017-12-31T13:01:12.972Z,13.66
2017-12-31T13:03:43.782Z,13.58
2017-12-31T13:06:14.537Z,13.78
2017-12-31T13:08:45.286Z,13.66
2017-12-31T13:11:16.073Z,13.69
2017-12-31T13:13:46.863Z,13.67
2017-12-31T13:16:17.620Z,13.54
2017-12-31T13:18:48.451Z,13.41
2017-12-31T13:21:19.420Z,13.40
2017-12-31T13:23:50.184Z,13.64
2017-12-31T13:26:20.985Z,13.58
2017-12-31T13:28:51.729Z,13.56
2017-12-31T13:31:22.540Z,13.41
2017-12-31T13:33:53.313Z,13.48
2017-12-31T13:36:24.118Z,13.44
2017-12-31T13:38:54.924Z,13.32
2017-12-31T13:41:25.730Z,13.30
2017-12-31T13:43:56.467Z,13.32
2017-12-31T13:46:27.234Z,13.33
2017-12-31T13:48:57.992Z,13.27
2017-12-31T13:51:28.849Z,13.37
2017-12-31T13:53:59.616Z,13.23
2017-12-31T13:56:30.380Z,13.16
2017-12-31T13:59:01.156Z,13.15
2017-12-31T14:01:31.968Z,13.21
2017-12-31T14:04:02.750Z,13.16
2017-12-31T14:06:33.552Z,13.06
2017-12-31T14:09:04.335Z,12.90
2017-12-31T14:11:35.161Z,12.82
2017-12-31T14:14:05.907Z,12.76
2017-12-31T14:16:36.705Z,12.81
2017-12-31T14:19:07.473Z,12.82
2017-12-31T14:21:38.248Z,12.82
2017-12-31T14:24:09.000Z,12.76
2017-12-31T14:26:39.764Z,12.61
2017-12-31T14:29:10.524Z,12.45
2017-12-31T14:31:41.308Z,12.31
2017-12-31T14:34:12.101Z,12.19
2017-12-31T14:36:42.868Z,12.07
2017-12-31T14:39:13.629Z,11.98
2017-12-31T14:41:44.501Z,11.77
2017-12-31T14:44:15.280Z,11.78
2017-12-31T14:46:46.083Z,11.74
2017-12-31T14:49:16.881Z,11.62
2017-12-31T14:51:47.655Z,11.52
2017-12-31T14:54:18.425Z,11.55
2017-12-31T14:56:49.196Z,11.47
2017-12-31T14:59:19.964Z,11.30
2017-12-31T15:01:50.733Z,11.12
2017-12-31T15:04:21.525Z,11.02
2017-12-31T15:06:52.308Z,10.94
2017-12-31T15:09:23.060Z,10.92
2017-12-31T15:11:53.830Z,10.93
2017-12-31T15:14:24.628Z,10.97
2017-12-31T15:16:55.451Z,11.02
2017-12-31T15:19:26.199Z,11.04
2017-12-31T15:21:57.036Z,11.18
2017-12-31T15:24:27.867Z,11.28
2017-12-31T15:26:58.632Z,11.36
2017-12-31T15:29:29.372Z,11.31
2017-12-31T15:32:00.190Z,11.18
2017-12-31T15:34:30.952Z,10.93
2017-12-31T15:37:01.741Z,10.74
2017-12-31T15:39:32.578Z,10.65
2017-12-31T15:42:03.483Z,10.59
2017-12-31T15:44:34.298Z,10.54
2017-12-31T15:47:05.125Z,10.42
2017-12-31T15:49:35.895Z,10.40
2017-12-31T15:52:06.696Z,10.28
2017-12-31T15:54:37.500Z,10.12
2017-12-31T15:57:08.263Z,9.94
2017-12-31T15:59:39.025Z,9.97
2017-12-31T16:02:09.801Z,10.06
2017-12-31T16:04:40.603Z,10.26
2017-12-31T16:07:11.360Z,10.35
2017-12-31T16:09:42.155Z,10.37
2017-12-31T16:12:12.971Z,10.35
2017-12-31T16:14:43.785Z,10.39
2017-12-31T16:17:14.638Z,10.29
2017-12-31T16:19:45.397Z,10.11
2017-12-31T16:22:16.215Z,9.89
2017-12-31T16:24:47.152Z,9.63
2017-12-31T16:27:17.966Z,9.47
2017-12-31T16:29:48.741Z,9.28
2017-12-31T16:32:19.542Z,9.01
2017-12-31T16:34:50.309Z,8.82
2017-12-31T16:37:21.081Z,8.63
2017-12-31T16:39:52.052Z,8.45
2017-12-31T16:42:22.839Z,8.39
2017-12-31T16:44:53.592Z,8.25
2017-12-31T16:47:24.372Z,8.13
2017-12-31T16:49:55.121Z,8.20
2017-12-31T16:52:25.898Z,8.07
2017-12-31T16:54:56.981Z,7.92
2017-12-31T16:57:27.784Z,7.76
2017-12-31T16:59:58.614Z,7.73
2017-12-31T17:02:29.383Z,7.60
2017-12-31T17:05:00.169Z,7.61
2017-12-31T17:07:30.984Z,7.47
2017-12-31T17:10:01.741Z,7.44
2017-12-31T17:12:32.538Z,7.53
2017-12-31T17:15:03.331Z,7.48
2017-12-31T17:17:34.125Z,7.53
2017-12-31T17:20:04.980Z,7.31
2017-12-31T17:22:35.788Z,7.05
2017-12-31T17:25:06.557Z,6.97
2017-12-31T17:27:37.386Z,6.93
2017-12-31T17:30:08.142Z,6.98
2017-12-31T17:32:38.905Z,6.85
2017-12-31T17:35:09.662Z,6.87
2017-12-31T17:37:40.460Z,6.81
2017-12-31T17:40:11.229Z,6.71
2017-12-31T17:42:41.997Z,6.74
2017-12-31T17:45:12.751Z,6.62
2017-12-31T17:47:43.520Z,6.55
2017-12-31T17:50:14.277Z,6.58
2017-12-31T17:52:45.040Z,6.56
2017-12-31T17:55:16.018Z,6.39
2017-12-31T17:57:46.832Z,6.47
2017-12-31T18:00:17.593Z,6.36
2017-12-31T18:02:48.376Z,6.26
2017-12-31T18:05:19.120Z,6.32
2017-12-31T18:07:49.892Z,6.22
2017-12-31T18:10:20.674Z,6.26
2017-12-31T18:12:51.545Z,6.24
2017-12-31T18:15:22.293Z,6.21
2017-12-31T18:17:53.080Z,6.09
2017-12-31T18:20:23.862Z,6.12
2017-12-31T18:22:54.676Z,6.06
2017-12-31T18:25:25.434Z,6.02
2017-12-31T18:27:56.315Z,5.96
2017-12-31T18:30:27.116Z,6.03
2017-12-31T18:32:57.997Z,6.16
2017-12-31T18:35:28.817Z,6.23
2017-12-31T18:37:59.691Z,6.12
2017-12-31T18:40:30.455Z,6.05
2017-12-31T18:43:01.220Z,6.00
2017-12-31T18:45:32.115Z,5.92
2017-12-31T18:48:02.922Z,5.91
2017-12-31T18:50:33.712Z,5.92
2017-12-31T18:53:04.467Z,5.92
2017-12-31T18:55:35.262Z,5.86
2017-12-31T18:58:06.062Z,5.73
2017-12-31T19:00:37.083Z,5.68
2017-12-31T19:03:07.884Z,5.75
2017-12-31T19:05:38.696Z,5.74
2017-12-31T19:08:09.451Z,5.72
2017-12-31T19:10:40.245Z,5.66
2017-12-31T19:13:11.023Z,5.60
2017-12-31T19:15:41.772Z,5.53
2017-12-31T19:18:12.536Z,5.52
2017-12-31T19:20:43.326Z,5.55
2017-12-31T19:23:14.076Z,5.49
2017-12-31T19:25:44.841Z,5.38
2017-12-31T19:28:15.603Z,5.33
2017-12-31T19:30:46.368Z,5.21
2017-12-31T19:33:17.175Z,5.11
2017-12-31T19:35:47.957Z,5.03
2017-12-31T19:38:18.767Z,4.98
2017-12-31T19:40:49.603Z,4.91
2017-12-31T19:43:20.436Z,4.87
2017-12-31T19:45:51.236Z,4.71
2017-12-31T19:48:21.983Z,4.72
2017-12-31T19:50:53.902Z,4.75
2017-12-31T19:53:24.720Z,4.73
2017-12-31T19:55:55.472Z,4.67
2017-12-31T19:58:26.232Z,4.63
2017-12-31T20:00:57.018Z,4.64
2017-12-31T20:03:27.767Z,4.61
2017-12-31T20:05:58.511Z,4.70
2017-12-31T20:08:29.399Z,4.65
2017-12-31T20:11:00.180Z,4.60
2017-12-31T20:13:31.013Z,4.60
2017-12-31T20:16:01.850Z,4.59
2017-12-31T20:18:32.758Z,4.49
2017-12-31T20:21:03.499Z,4.49
2017-12-31T20:23:35.364Z,4.52
2017-12-31T20:26:06.163Z,4.60
2017-12-31T20:28:36.976Z,4.52
2017-12-31T20:31:07.766Z,4.45
2017-12-31T20:33:38.540Z,4.35
2017-12-31T20:36:09.283Z,4.32
2017-12-31T20:38:40.097Z,4.32
2017-12-31T20:41:11.051Z,4.40
2017-12-31T20:43:41.895Z,4.26
2017-12-31T20:46:12.772Z,4.31
2017-12-31T20:48:43.616Z,4.30
2017-12-31T20:51:14.396Z,4.10
2017-12-31T20:53:45.191Z,4.19
2017-12-31T20:56:15.976Z,4.10
2017-12-31T20:58:46.736Z,4.12
2017-12-31T21:01:19.396Z,3.98
2017-12-31T21:03:50.725Z,3.84
2017-12-31T21:06:21.591Z,3.86
2017-12-31T21:08:52.404Z,3.83
2017-12-31T21:11:23.212Z,3.88
2017-12-31T21:13:54.124Z,3.81
2017-12-31T21:16:24.931Z,3.79
2017-12-31T21:18:55.776Z,3.95
2017-12-31T21:21:26.662Z,4.07
2017-12-31T21:23:57.420Z,4.03
2017-12-31T21:26:30.191Z,4.05
2017-12-31T21:29:01.113Z,4.06
2017-12-31T21:31:31.917Z,4.01
2017-12-31T21:34:02.679Z,4.00
2017-12-31T21:36:33.456Z,4.04
2017-12-31T21:39:04.209Z,4.06
2017-12-31T21:41:35.006Z,4.04
2017-12-31T21:44:05.812Z,3.93
2017-12-31T21:46:36.639Z,3.88
2017-12-31T21:49:07.486Z,3.75
2017-12-31T21:51:38.251Z,3.71
2017-12-31T21:54:10.104Z,3.62
2017-12-31T21:56:40.924Z,3.57
2017-12-31T21:59:11.696Z,3.62
2017-12-31T22:01:42.474Z,3.59
2017-12-31T22:04:13.265Z,3.56
2017-12-31T22:06:44.004Z,3.50
2017-12-31T22:09:15.847Z,3.50
2017-12-31T22:11:46.639Z,3.52
2017-12-31T22:14:17.408Z,3.56
2017-12-31T22:16:48.155Z,3.56
2017-12-31T22:19:18.955Z,3.54
2017-12-31T22:21:49.737Z,3.45
2017-12-31T22:24:20.551Z,3.54
2017-12-31T22:26:51.378Z,3.47
2017-12-31T22:29:22.160Z,3.58
2017-12-31T22:31:52.967Z,3.50
2017-12-31T22:34:23.858Z,3.52
2017-12-31T22:36:54.625Z,3.64
2017-12-31T22:39:25.431Z,3.59
2017-12-31T22:41:56.225Z,3.59
2017-12-31T22:44:26.992Z,3.65
2017-12-31T22:46:57.782Z,3.59
2017-12-31T22:49:28.619Z,3.61
2017-12-31T22:51:59.416Z,3.51
2017-12-31T22:54:30.223Z,3.39
2017-12-31T22:57:00.968Z,3.31
2017-12-31T22:59:31.758Z,3.30
2017-12-31T23:02:02.513Z,3.24
2017-12-31T23:04:33.381Z,3.28
2017-12-31T23:07:05.214Z,3.31
2017-12-31T23:09:35.976Z,3.31
2017-12-31T23:12:06.821Z,3.30
2017-12-31T23:14:37.646Z,3.25
2017-12-31T23:17:08.405Z,3.33
2017-12-31T23:19:39.229Z,3.27
2017-12-31T23:22:10.052Z,3.28
2017-12-31T23:24:40.867Z,3.25
2017-12-31T23:27:11.616Z,3.26
2017-12-31T23:29:42.427Z,3.28
2017-12-31T23:32:13.235Z,3.25
2017-12-31T23:34:43.994Z,3.18
2017-12-31T23:37:14.746Z,3.14
2017-12-31T23:39:45.514Z,3.17
2017-12-31T23:42:16.267Z,3.16
2017-12-31T23:44:47.062Z,3.07
2017-12-31T23:47:20.568Z,3.05
2017-12-31T23:49:54.433Z,3.08
2017-12-31T23:52:25.382Z,3.08
2017-12-31T23:54:56.173Z,3.06
2017-12-31T23:57:27.023Z,3.04
2017-12-31T23:59:57.977Z,2.99
